createdAt,value
2018-11-12T00:00:47.962Z,23.13
2018-11-12T00:03:20.183Z,23.11
2018-11-12T00:05:52.472Z,23.12
2018-11-12T00:08:24.764Z,23.10
2018-11-12T00:10:57.266Z,23.03
2018-11-12T00:13:29.354Z,23.04
2018-11-12T00:16:01.682Z,23.04
2018-11-12T00:18:33.911Z,23.04
2018-11-12T00:21:06.436Z,23.02
2018-11-12T00:23:38.568Z,23.01
2018-11-12T00:26:10.758Z,23.04
2018-11-12T00:28:42.600Z,23.02
2018-11-12T00:31:15.032Z,23.01
2018-11-12T00:33:47.052Z,23.02
2018-11-12T00:36:18.844Z,22.98
2018-11-12T00:38:51.046Z,23.03
2018-11-12T00:41:23.053Z,23.02
2018-11-12T00:43:54.792Z,23.04
2018-11-12T00:46:26.909Z,22.96
2018-11-12T00:48:59.051Z,23.01
2018-11-12T00:51:31.710Z,23.00
2018-11-12T00:54:03.866Z,23.02
2018-11-12T00:56:36.106Z,23.01
2018-11-12T00:59:07.732Z,23.03
2018-11-12T01:01:40.131Z,23.02
2018-11-12T01:04:12.376Z,23.01
2018-11-12T01:06:44.728Z,22.98
2018-11-12T01:09:16.829Z,22.98
2018-11-12T01:11:49.724Z,22.96
2018-11-12T01:14:22.157Z,22.98
2018-11-12T01:16:54.478Z,22.91
2018-11-12T01:19:26.578Z,22.88
2018-11-12T01:21:58.927Z,22.88
2018-11-12T01:24:31.010Z,22.90
2018-11-12T01:27:03.206Z,22.89
2018-11-12T01:29:35.424Z,22.86
2018-11-12T01:32:07.360Z,22.87
2018-11-12T01:34:39.485Z,22.87
2018-11-12T01:37:11.438Z,22.91
2018-11-12T01:39:43.692Z,22.91
2018-11-12T01:42:15.707Z,22.91
2018-11-12T01:44:47.810Z,22.89
2018-11-12T01:47:19.763Z,22.93
2018-11-12T01:49:51.640Z,22.91
2018-11-12T01:52:24.346Z,22.91
2018-11-12T01:54:56.667Z,22.91
2018-11-12T01:57:28.854Z,22.89
2018-11-12T02:00:00.905Z,22.88
2018-11-12T02:02:33.141Z,22.87
2018-11-12T02:05:05.388Z,22.85
2018-11-12T02:07:37.566Z,22.85
2018-11-12T02:10:11.086Z,22.85
2018-11-12T02:12:43.692Z,22.85
2018-11-12T02:15:17.274Z,22.85
2018-11-12T02:17:50.112Z,22.84
2018-11-12T02:20:22.713Z,22.85
2018-11-12T02:22:55.283Z,22.87
2018-11-12T02:25:27.341Z,22.88
2018-11-12T02:27:59.704Z,22.88
2018-11-12T02:30:36.516Z,22.90
2018-11-12T02:33:08.357Z,22.92
2018-11-12T02:35:40.559Z,22.94
2018-11-12T02:38:12.736Z,22.97
2018-11-12T02:40:44.808Z,23.01
2018-11-12T02:43:17.115Z,23.05
2018-11-12T02:45:48.994Z,23.08
2018-11-12T02:48:21.249Z,23.12
2018-11-12T02:50:53.971Z,23.16
2018-11-12T02:53:26.634Z,23.19
2018-11-12T02:55:58.666Z,23.21
2018-11-12T02:58:30.875Z,23.23
2018-11-12T03:01:02.978Z,23.23
2018-11-12T03:03:35.453Z,23.25
2018-11-12T03:06:07.558Z,23.27
2018-11-12T03:08:39.728Z,23.28
2018-11-12T03:11:11.609Z,23.29
2018-11-12T03:13:44.022Z,23.31
2018-11-12T03:16:16.208Z,23.32
2018-11-12T03:18:48.474Z,23.31
2018-11-12T03:21:20.497Z,23.33
2018-11-12T03:23:53.258Z,23.32
2018-11-12T03:26:25.163Z,23.33
2018-11-12T03:28:57.200Z,23.34
2018-11-12T03:31:29.472Z,23.34
2018-11-12T03:34:01.417Z,23.35
2018-11-12T03:36:33.469Z,23.36
2018-11-12T03:39:05.999Z,23.36
2018-11-12T03:41:38.011Z,23.37
2018-11-12T03:44:19.782Z,23.38
2018-11-12T03:46:51.795Z,23.36
2018-11-12T03:49:23.847Z,23.36
2018-11-12T03:51:55.850Z,23.37
2018-11-12T03:54:28.541Z,23.37
2018-11-12T03:57:00.574Z,23.36
2018-11-12T03:59:32.529Z,23.37
2018-11-12T04:02:04.727Z,23.36
2018-11-12T04:04:36.847Z,23.35
2018-11-12T04:07:08.690Z,23.35
2018-11-12T04:09:40.764Z,23.36
2018-11-12T04:12:12.859Z,23.36
2018-11-12T04:14:45.882Z,23.36
2018-11-12T04:17:18.033Z,23.36
2018-11-12T04:19:50.343Z,23.36
2018-11-12T04:22:22.339Z,23.38
2018-11-12T04:24:55.291Z,23.39
2018-11-12T04:27:27.614Z,23.39
2018-11-12T04:29:59.721Z,23.40
2018-11-12T04:32:31.853Z,23.41
2018-11-12T04:35:04.133Z,23.40
2018-11-12T04:37:36.227Z,23.40
2018-11-12T04:40:09.067Z,23.40
2018-11-12T04:42:41.535Z,23.40
2018-11-12T04:45:15.901Z,23.41
2018-11-12T04:47:48.605Z,23.39
2018-11-12T04:50:23.121Z,23.39
2018-11-12T04:52:55.465Z,23.39
2018-11-12T04:55:28.109Z,23.39
2018-11-12T04:58:00.010Z,23.39
2018-11-12T05:00:32.021Z,23.40
2018-11-12T05:03:04.050Z,23.39
2018-11-12T05:05:36.317Z,23.40
2018-11-12T05:08:08.153Z,23.39
2018-11-12T05:10:40.390Z,23.38
2018-11-12T05:13:12.335Z,23.36
2018-11-12T05:15:44.583Z,23.41
2018-11-12T05:18:16.638Z,23.42
2018-11-12T05:20:48.940Z,23.43
2018-11-12T05:23:20.690Z,23.43
2018-11-12T05:25:53.399Z,23.44
2018-11-12T05:28:26.089Z,23.44
2018-11-12T05:30:58.372Z,23.42
2018-11-12T05:33:30.410Z,23.43
2018-11-12T05:36:02.599Z,23.42
2018-11-12T05:38:34.738Z,23.42
2018-11-12T05:41:06.966Z,23.42
2018-11-12T05:43:38.955Z,23.42
2018-11-12T05:46:10.968Z,23.41
2018-11-12T05:48:43.113Z,23.42
2018-11-12T05:51:15.624Z,23.42
2018-11-12T05:53:47.765Z,23.42
2018-11-12T05:56:20.263Z,23.41
2018-11-12T05:58:52.285Z,23.43
2018-11-12T06:01:24.688Z,23.41
2018-11-12T06:03:56.775Z,23.41
2018-11-12T06:06:28.668Z,23.42
2018-11-12T06:09:02.730Z,23.43
2018-11-12T06:11:35.170Z,23.44
2018-11-12T06:14:07.491Z,23.45
2018-11-12T06:16:39.582Z,23.45
2018-11-12T06:19:11.714Z,23.48
2018-11-12T06:21:43.904Z,23.47
2018-11-12T06:24:15.888Z,23.47
2018-11-12T06:26:48.453Z,23.46
2018-11-12T06:29:20.556Z,23.46
2018-11-12T06:31:52.849Z,23.46
2018-11-12T06:34:24.548Z,23.46
2018-11-12T06:36:57.167Z,23.46
2018-11-12T06:39:29.318Z,23.46
2018-11-12T06:42:01.302Z,23.47
2018-11-12T06:44:33.186Z,23.47
2018-11-12T06:47:05.338Z,23.48
2018-11-12T06:49:37.456Z,23.48
2018-11-12T06:52:09.737Z,23.47
2018-11-12T06:54:41.506Z,23.48
2018-11-12T06:57:14.041Z,23.48
2018-11-12T06:59:46.032Z,23.48
2018-11-12T07:02:17.862Z,23.49
2018-11-12T07:04:49.741Z,23.50
2018-11-12T07:07:21.818Z,23.50
2018-11-12T07:09:54.868Z,23.51
2018-11-12T07:12:27.382Z,23.53
2018-11-12T07:15:15.660Z,23.53
2018-11-12T07:18:03.286Z,23.53
2018-11-12T07:20:52.652Z,23.52
2018-11-12T07:23:24.875Z,23.53
2018-11-12T07:25:56.831Z,23.54
2018-11-12T07:28:29.367Z,23.55
2018-11-12T07:31:01.589Z,23.55
2018-11-12T07:33:33.427Z,23.54
2018-11-12T07:36:05.334Z,23.54
2018-11-12T07:38:37.438Z,23.54
2018-11-12T07:41:09.391Z,23.54
2018-11-12T07:43:41.538Z,23.55
2018-11-12T07:46:17.518Z,23.56
2018-11-12T07:48:49.684Z,23.56
2018-11-12T07:51:21.941Z,23.56
2018-11-12T07:53:53.830Z,23.57
2018-11-12T07:56:26.106Z,23.57
2018-11-12T07:58:58.823Z,23.59
2018-11-12T08:01:31.156Z,23.61
2018-11-12T08:04:03.311Z,23.62
2018-11-12T08:06:35.224Z,23.63
2018-11-12T08:09:08.538Z,23.65
2018-11-12T08:11:41.048Z,23.65
2018-11-12T08:14:13.424Z,23.66
2018-11-12T08:16:45.897Z,23.66
2018-11-12T08:19:18.050Z,23.67
2018-11-12T08:21:50.152Z,23.68
2018-11-12T08:24:22.550Z,23.68
2018-11-12T08:26:54.689Z,23.67
2018-11-12T08:29:27.079Z,23.68
2018-11-12T08:31:59.258Z,23.67
2018-11-12T08:34:31.193Z,23.69
2018-11-12T08:37:03.659Z,23.69
2018-11-12T08:39:35.804Z,23.69
2018-11-12T08:42:07.854Z,23.69
2018-11-12T08:44:39.904Z,23.68
2018-11-12T08:47:11.963Z,23.69
2018-11-12T08:49:44.092Z,23.71
2018-11-12T08:52:16.390Z,23.73
2018-11-12T08:54:48.562Z,23.72
2018-11-12T08:57:20.615Z,23.78
2018-11-12T08:59:53.333Z,23.78
2018-11-12T09:02:25.365Z,23.79
2018-11-12T09:04:57.688Z,23.80
2018-11-12T09:07:29.611Z,23.77
2018-11-12T09:10:01.516Z,23.77
2018-11-12T09:12:34.068Z,23.76
2018-11-12T09:15:06.101Z,23.78
2018-11-12T09:17:38.735Z,23.77
2018-11-12T09:20:12.975Z,23.78
2018-11-12T09:22:44.977Z,23.79
2018-11-12T09:25:18.177Z,23.79
2018-11-12T09:27:50.438Z,23.79
2018-11-12T09:30:24.468Z,23.78
2018-11-12T09:32:56.791Z,23.80
2018-11-12T09:35:30.172Z,23.81
2018-11-12T09:38:03.393Z,23.80
2018-11-12T09:40:38.487Z,23.82
2018-11-12T09:43:10.547Z,23.83
2018-11-12T09:45:42.830Z,23.85
2018-11-12T09:48:14.843Z,23.86
2018-11-12T09:50:46.824Z,23.88
2018-11-12T09:53:18.728Z,23.89
2018-11-12T09:55:50.934Z,23.89
2018-11-12T09:58:22.934Z,23.90
2018-11-12T10:00:56.499Z,23.88
2018-11-12T10:03:30.524Z,23.89
2018-11-12T10:06:03.268Z,23.88
2018-11-12T10:08:38.526Z,23.88
2018-11-12T10:11:11.321Z,23.89
2018-11-12T10:13:43.050Z,23.89
2018-11-12T10:16:15.977Z,23.90
2018-11-12T10:18:45.721Z,23.90
2018-11-12T10:21:17.923Z,23.90
2018-11-12T10:23:50.096Z,23.90
2018-11-12T10:26:22.527Z,23.90
2018-11-12T10:28:54.536Z,23.91
2018-11-12T10:31:27.488Z,23.91
2018-11-12T10:33:59.310Z,23.93
2018-11-12T10:36:31.558Z,23.95
2018-11-12T10:39:03.649Z,23.98
2018-11-12T10:41:35.528Z,23.99
2018-11-12T10:44:09.718Z,23.99
2018-11-12T10:46:43.391Z,24.00
2018-11-12T10:49:17.964Z,24.00
2018-11-12T10:51:50.607Z,24.02
2018-11-12T10:54:22.782Z,24.00
2018-11-12T10:56:54.949Z,24.01
2018-11-12T10:59:27.024Z,24.00
2018-11-12T11:02:03.953Z,24.02
2018-11-12T11:04:36.017Z,24.02
2018-11-12T11:07:08.347Z,24.02
2018-11-12T11:09:40.055Z,24.02
2018-11-12T11:12:12.413Z,24.01
2018-11-12T11:14:44.516Z,24.02
2018-11-12T11:17:17.353Z,24.03
2018-11-12T11:19:49.466Z,24.03
2018-11-12T11:22:21.799Z,24.02
2018-11-12T11:24:53.963Z,24.04
2018-11-12T11:27:26.527Z,24.05
2018-11-12T11:29:58.571Z,24.06
2018-11-12T11:32:31.325Z,24.09
2018-11-12T11:35:03.236Z,24.09
2018-11-12T11:37:35.422Z,24.09
2018-11-12T11:40:10.343Z,24.10
2018-11-12T11:42:42.644Z,24.10
2018-11-12T11:45:15.438Z,24.10
2018-11-12T11:47:48.546Z,24.10
2018-11-12T11:50:22.007Z,24.10
2018-11-12T11:52:54.303Z,24.09
2018-11-12T11:55:26.639Z,24.09
2018-11-12T11:57:58.856Z,24.09
2018-11-12T12:00:31.252Z,24.08
2018-11-12T12:03:03.790Z,24.09
2018-11-12T12:05:35.991Z,24.09
2018-11-12T13:08:04.883Z,26.62
2018-11-12T13:10:38.239Z,26.63
2018-11-12T13:13:11.015Z,26.57
2018-11-12T13:15:42.732Z,26.57
2018-11-12T13:18:14.512Z,26.52
2018-11-12T13:20:46.818Z,26.45
2018-11-12T13:23:19.117Z,26.42
2018-11-12T13:25:51.780Z,26.41
2018-11-12T13:28:23.532Z,26.40
2018-11-12T13:30:55.251Z,26.37
2018-11-12T13:33:27.173Z,26.42
2018-11-12T13:35:59.195Z,26.43
2018-11-12T13:38:31.130Z,26.44
2018-11-12T13:41:04.703Z,26.42
2018-11-12T13:43:37.178Z,26.37
2018-11-12T13:46:08.887Z,26.39
2018-11-12T13:48:40.708Z,26.44
2018-11-12T13:51:12.256Z,26.46
2018-11-12T13:53:44.052Z,26.45
2018-11-12T13:56:15.889Z,26.46
2018-11-12T13:58:48.171Z,26.44
2018-11-12T14:01:19.814Z,26.44
2018-11-12T14:03:52.360Z,26.42
2018-11-12T14:06:24.159Z,26.40
2018-11-12T14:08:56.623Z,26.39
2018-11-12T14:11:29.290Z,26.41
2018-11-12T14:14:01.913Z,26.40
2018-11-12T14:16:33.958Z,26.05
2018-11-12T14:19:06.560Z,26.27
2018-11-12T14:21:38.544Z,26.30
2018-11-12T14:24:11.611Z,26.27
2018-11-12T14:26:43.529Z,26.30
2018-11-12T14:29:15.303Z,26.27
2018-11-12T14:31:47.159Z,26.26
2018-11-12T14:34:19.293Z,26.25
2018-11-12T14:36:51.642Z,26.22
2018-11-12T14:39:24.034Z,26.22
2018-11-12T14:41:56.398Z,26.19
2018-11-12T14:44:28.293Z,26.19
2018-11-12T14:47:00.110Z,26.19
2018-11-12T14:49:32.180Z,26.18
2018-11-12T14:52:04.028Z,26.16
2018-11-12T14:54:36.772Z,26.17
2018-11-12T14:57:08.837Z,26.14
2018-11-12T14:59:40.966Z,26.12
2018-11-12T15:02:12.830Z,26.12
2018-11-12T15:04:44.745Z,26.07
2018-11-12T15:07:16.662Z,26.07
2018-11-12T15:09:48.350Z,26.05
2018-11-12T15:12:20.965Z,26.07
2018-11-12T15:14:53.481Z,25.99
2018-11-12T15:17:26.224Z,25.98
2018-11-12T15:19:57.976Z,25.97
2018-11-12T15:22:29.715Z,25.96
2018-11-12T15:25:01.367Z,25.97
2018-11-12T15:27:34.411Z,25.96
2018-11-12T15:30:07.401Z,25.90
2018-11-12T15:32:39.172Z,25.70
2018-11-12T15:35:11.849Z,25.66
2018-11-12T15:37:44.138Z,25.69
2018-11-12T15:40:16.335Z,25.65
2018-11-12T15:42:48.383Z,25.59
2018-11-12T15:45:23.312Z,25.31
2018-11-12T15:47:55.271Z,25.33
2018-11-12T15:50:33.464Z,25.28
2018-11-12T15:53:05.058Z,25.13
2018-11-12T15:55:36.837Z,25.10
2018-11-12T15:58:08.632Z,25.17
2018-11-12T16:00:40.487Z,25.15
2018-11-12T16:03:11.987Z,25.14
2018-11-12T16:05:43.804Z,25.03
2018-11-12T16:08:15.395Z,24.95
2018-11-12T16:10:47.289Z,25.03
2018-11-12T16:13:20.360Z,25.08
2018-11-12T16:15:53.251Z,25.06
2018-11-12T16:18:25.828Z,24.97
2018-11-12T16:20:57.403Z,24.83
2018-11-12T16:23:29.259Z,24.91
2018-11-12T16:26:01.164Z,24.89
2018-11-12T16:30:59.405Z,24.87
2018-11-12T16:33:30.969Z,24.80
2018-11-12T16:36:02.706Z,24.76
2018-11-12T16:38:34.967Z,24.65
2018-11-12T16:41:06.645Z,24.59
2018-11-12T16:43:39.394Z,24.61
2018-11-12T16:46:11.569Z,24.68
2018-11-12T16:48:43.338Z,24.72
2018-11-12T16:51:14.670Z,24.78
2018-11-12T16:53:46.619Z,24.70
2018-11-12T16:56:18.269Z,24.69
2018-11-12T16:58:50.606Z,24.64
2018-11-12T17:01:22.258Z,24.43
2018-11-12T17:03:54.188Z,24.41
2018-11-12T17:06:25.801Z,24.32
2018-11-12T17:08:57.819Z,24.37
2018-11-12T17:11:29.329Z,24.40
2018-11-12T17:14:02.197Z,24.47
2018-11-12T17:16:34.254Z,24.67
2018-11-12T17:19:07.111Z,24.82
2018-11-12T17:21:39.069Z,24.80
2018-11-12T17:24:11.345Z,24.87
2018-11-12T17:26:42.897Z,25.00
2018-11-12T17:29:14.454Z,24.86
2018-11-12T17:31:46.127Z,24.93
2018-11-12T17:34:17.543Z,24.60
2018-11-12T17:36:49.252Z,24.74
2018-11-12T17:39:20.980Z,24.88
2018-11-12T17:41:52.436Z,25.08
2018-11-12T17:44:24.944Z,24.88
2018-11-12T17:46:56.738Z,24.80
2018-11-12T17:49:28.426Z,24.95
2018-11-12T17:52:00.329Z,24.82
2018-11-12T17:54:32.553Z,24.89
2018-11-12T17:57:04.529Z,24.44
2018-11-12T17:59:36.816Z,24.82
2018-11-12T18:04:30.399Z,24.83
2018-11-12T18:07:03.295Z,24.90
2018-11-12T18:09:35.399Z,24.71
2018-11-12T18:12:08.173Z,24.68
2018-11-12T18:14:40.319Z,24.87
2018-11-12T18:19:42.612Z,24.38
2018-11-12T18:22:14.817Z,24.61
2018-11-12T18:24:46.533Z,24.67
2018-11-12T18:27:18.085Z,24.78
2018-11-12T18:29:49.809Z,24.64
2018-11-12T18:32:21.632Z,24.48
2018-11-12T18:34:53.267Z,24.48
2018-11-12T18:37:24.846Z,24.49
2018-11-12T18:39:56.377Z,24.25
2018-11-12T18:42:27.860Z,24.19
2018-11-12T18:44:59.968Z,24.29
2018-11-12T18:47:31.560Z,24.38
2018-11-12T18:50:03.220Z,24.48
2018-11-12T18:52:34.707Z,24.49
2018-11-12T18:55:07.228Z,24.57
2018-11-12T18:57:39.404Z,24.35
2018-11-12T19:02:46.226Z,23.99
2018-11-12T19:05:21.595Z,23.91
2018-11-12T19:12:30.268Z,23.87
2018-11-12T19:15:02.602Z,23.78
2018-11-12T19:20:31.321Z,23.71
2018-11-12T19:23:02.920Z,23.63
2018-11-12T19:25:34.636Z,23.68
2018-11-12T19:28:06.356Z,23.68
2018-11-12T19:30:38.031Z,23.69
2018-11-12T19:35:35.506Z,23.55
2018-11-12T19:40:32.460Z,23.57
2018-11-12T19:43:04.149Z,23.60
2018-11-12T19:47:59.327Z,23.54
2018-11-12T19:50:31.518Z,23.47
2018-11-12T19:53:03.269Z,23.46
2018-11-12T19:55:34.979Z,23.45
2018-11-12T19:58:06.593Z,23.42
2018-11-12T20:00:38.266Z,23.45
2018-11-12T20:03:09.837Z,23.38
2018-11-12T20:05:41.334Z,23.17
2018-11-12T20:10:41.185Z,23.38
2018-11-12T20:13:12.695Z,23.53
2018-11-12T20:15:44.720Z,23.49
2018-11-12T20:18:16.477Z,23.47
2018-11-12T20:23:12.335Z,23.23
2018-11-12T20:25:43.778Z,23.11
2018-11-12T20:28:15.311Z,23.18
2018-11-12T20:30:46.807Z,23.05
2018-11-12T20:33:18.442Z,23.31
2018-11-12T20:37:19.498Z,23.22
2018-11-12T20:39:51.584Z,23.14
2018-11-12T20:44:38.181Z,23.20
2018-11-12T20:47:10.373Z,23.24
2018-11-12T20:49:41.885Z,23.22
2018-11-12T20:52:13.659Z,23.17
2018-11-12T20:54:46.229Z,23.29
2018-11-12T20:57:18.135Z,23.11
2018-11-12T20:59:49.720Z,23.04
2018-11-12T21:02:21.114Z,22.85
2018-11-12T21:07:52.832Z,22.91
2018-11-12T21:10:24.386Z,22.68
2018-11-12T21:12:55.930Z,22.98
2018-11-12T21:17:49.300Z,22.86
2018-11-12T21:20:24.499Z,23.03
2018-11-12T21:22:56.482Z,22.92
2018-11-12T21:27:51.618Z,22.84
2018-11-12T21:30:24.470Z,22.77
2018-11-12T21:32:56.341Z,22.70
2018-11-12T21:35:27.970Z,22.82
2018-11-12T21:38:00.003Z,22.79
2018-11-12T21:43:01.479Z,22.75
2018-11-12T21:45:33.584Z,22.64
2018-11-12T21:56:36.468Z,22.58
2018-11-12T21:59:08.499Z,22.78
2018-11-12T22:01:40.422Z,22.75
2018-11-12T22:06:47.018Z,22.62
2018-11-12T22:09:18.522Z,22.53
2018-11-12T22:11:50.310Z,22.44
2018-11-12T22:14:21.779Z,22.38
2018-11-12T22:16:53.430Z,22.55
2018-11-12T22:19:24.980Z,22.54
2018-11-12T22:21:56.590Z,22.51
2018-11-12T22:24:28.081Z,22.51
2018-11-12T22:27:01.205Z,22.50
2018-11-12T22:29:33.694Z,22.50
2018-11-12T22:32:05.512Z,22.55
2018-11-12T22:34:37.137Z,22.67
2018-11-12T22:37:08.739Z,22.75
2018-11-12T22:39:40.252Z,22.56
2018-11-12T22:42:11.987Z,22.40
2018-11-12T22:44:43.429Z,22.25
2018-11-12T22:47:14.996Z,22.48
2018-11-12T22:49:46.384Z,22.72
2018-11-12T22:52:18.123Z,22.54
2018-11-12T22:54:49.689Z,22.24
2018-11-12T22:57:21.516Z,22.26
2018-11-12T22:59:53.700Z,22.18
2018-11-12T23:02:25.461Z,22.20
2018-11-12T23:04:57.008Z,22.34
2018-11-12T23:07:28.554Z,22.34
2018-11-12T23:10:00.152Z,22.29
2018-11-12T23:12:31.814Z,21.91
2018-11-12T23:15:03.485Z,22.20
2018-11-12T23:17:35.325Z,22.39
2018-11-12T23:20:08.475Z,22.48
2018-11-12T23:22:40.702Z,22.31
2018-11-12T23:25:12.447Z,22.30
2018-11-12T23:27:45.075Z,22.32
2018-11-12T23:30:18.397Z,22.40
2018-11-12T23:32:50.623Z,22.46
2018-11-12T23:35:24.425Z,22.40
2018-11-12T23:37:56.382Z,22.42
2018-11-12T23:40:28.363Z,22.27
2018-11-12T23:43:00.436Z,22.39
2018-11-12T23:47:55.076Z,22.26
2018-11-12T23:50:26.792Z,22.00
2018-11-12T23:52:58.340Z,21.97
2018-11-12T23:55:29.964Z,22.27
2018-11-12T23:58:01.642Z,22.01
